sensor_id;sensor_type;location;lat;lon;timestamp;P1;durP1;ratioP1;P2;durP2;ratioP2
4353;SDS011;11018;51.258;6.806;2023-06-22T00:01:17;9.20;;;4.22;;
4353;SDS011;11018;51.258;6.806;2023-06-22T00:03:43;7.95;;;4.00;;
4353;SDS011;11018;51.258;6.806;2023-06-22T00:06:09;9.10;;;4.00;;
4353;SDS011;11018;51.258;6.806;2023-06-22T00:08:35;5.40;;;4.10;;
4353;SDS011;11018;51.258;6.806;2023-06-22T00:11:00;5.77;;;4.03;;
4353;SDS011;11018;51.258;6.806;2023-06-22T00:13:26;9.32;;;4.22;;
4353;SDS011;11018;51.258;6.806;2023-06-22T00:15:51;5.67;;;4.17;;
4353;SDS011;11018;51.258;6.806;2023-06-22T00:18:17;8.52;;;4.30;;
4353;SDS011;11018;51.258;6.806;2023-06-22T00:20:43;6.05;;;3.97;;
4353;SDS011;11018;51.258;6.806;2023-06-22T00:23:10;7.13;;;4.10;;
4353;SDS011;11018;51.258;6.806;2023-06-22T00:25:36;9.77;;;4.32;;
4353;SDS011;11018;51.258;6.806;2023-06-22T00:28:03;7.43;;;4.38;;
4353;SDS011;11018;51.258;6.806;2023-06-22T00:30:30;7.13;;;4.10;;
4353;SDS011;11018;51.258;6.806;2023-06-22T00:32:56;9.48;;;4.30;;
4353;SDS011;11018;51.258;6.806;2023-06-22T00:35:22;5.70;;;4.32;;
4353;SDS011;11018;51.258;6.806;2023-06-22T00:37:47;6.70;;;4.27;;
4353;SDS011;11018;51.258;6.806;2023-06-22T00:40:13;6.50;;;4.30;;
4353;SDS011;11018;51.258;6.806;2023-06-22T00:42:39;5.97;;;4.50;;
4353;SDS011;11018;51.258;6.806;2023-06-22T00:45:06;7.00;;;4.28;;
4353;SDS011;11018;51.258;6.806;2023-06-22T00:47:33;6.45;;;4.13;;
4353;SDS011;11018;51.258;6.806;2023-06-22T00:49:59;7.43;;;4.55;;
4353;SDS011;11018;51.258;6.806;2023-06-22T00:52:25;7.72;;;4.47;;
4353;SDS011;11018;51.258;6.806;2023-06-22T00:54:54;7.82;;;5.00;;
4353;SDS011;11018;51.258;6.806;2023-06-22T00:57:22;9.48;;;5.10;;
4353;SDS011;11018;51.258;6.806;2023-06-22T00:59:50;9.13;;;5.15;;
4353;SDS011;11018;51.258;6.806;2023-06-22T01:02:16;8.60;;;4.90;;
4353;SDS011;11018;51.258;6.806;2023-06-22T01:04:42;6.90;;;4.85;;
4353;SDS011;11018;51.258;6.806;2023-06-22T01:07:15;6.60;;;4.83;;
4353;SDS011;11018;51.258;6.806;2023-06-22T01:12:24;7.90;;;5.30;;
4353;SDS011;11018;51.258;6.806;2023-06-22T01:14:55;9.32;;;5.60;;
4353;SDS011;11018;51.258;6.806;2023-06-22T01:17:30;6.55;;;4.93;;
4353;SDS011;11018;51.258;6.806;2023-06-22T01:19:57;8.60;;;5.43;;
4353;SDS011;11018;51.258;6.806;2023-06-22T01:22:26;11.07;;;6.50;;
4353;SDS011;11018;51.258;6.806;2023-06-22T01:30:30;10.30;;;5.83;;
4353;SDS011;11018;51.258;6.806;2023-06-22T01:33:00;8.50;;;6.20;;
4353;SDS011;11018;51.258;6.806;2023-06-22T01:35:28;10.82;;;6.60;;
4353;SDS011;11018;51.258;6.806;2023-06-22T01:37:54;11.10;;;6.68;;
4353;SDS011;11018;51.258;6.806;2023-06-22T01:40:21;10.45;;;6.60;;
4353;SDS011;11018;51.258;6.806;2023-06-22T01:42:46;10.48;;;6.90;;
4353;SDS011;11018;51.258;6.806;2023-06-22T01:45:13;10.25;;;7.00;;
4353;SDS011;11018;51.258;6.806;2023-06-22T01:47:39;10.85;;;7.05;;
4353;SDS011;11018;51.258;6.806;2023-06-22T01:50:06;11.23;;;6.88;;
4353;SDS011;11018;51.258;6.806;2023-06-22T01:52:32;15.35;;;7.38;;
4353;SDS011;11018;51.258;6.806;2023-06-22T01:54:59;10.83;;;7.10;;
4353;SDS011;11018;51.258;6.806;2023-06-22T01:57:25;12.23;;;7.63;;
4353;SDS011;11018;51.258;6.806;2023-06-22T02:02:27;15.10;;;7.70;;
4353;SDS011;11018;51.258;6.806;2023-06-22T02:05:04;12.15;;;7.47;;
4353;SDS011;11018;51.258;6.806;2023-06-22T02:07:33;12.65;;;8.55;;
4353;SDS011;11018;51.258;6.806;2023-06-22T02:10:07;12.90;;;7.93;;
4353;SDS011;11018;51.258;6.806;2023-06-22T02:12:37;10.95;;;8.05;;
4353;SDS011;11018;51.258;6.806;2023-06-22T02:15:03;12.70;;;8.98;;
4353;SDS011;11018;51.258;6.806;2023-06-22T02:17:29;10.40;;;8.48;;
4353;SDS011;11018;51.258;6.806;2023-06-22T02:19:58;11.45;;;8.60;;
4353;SDS011;11018;51.258;6.806;2023-06-22T02:22:23;15.63;;;8.85;;
4353;SDS011;11018;51.258;6.806;2023-06-22T02:24:49;12.00;;;9.17;;
4353;SDS011;11018;51.258;6.806;2023-06-22T02:27:14;15.95;;;10.20;;
4353;SDS011;11018;51.258;6.806;2023-06-22T02:29:40;14.93;;;10.03;;
4353;SDS011;11018;51.258;6.806;2023-06-22T02:32:06;17.50;;;10.30;;
4353;SDS011;11018;51.258;6.806;2023-06-22T02:34:31;17.23;;;10.75;;
4353;SDS011;11018;51.258;6.806;2023-06-22T02:36:58;14.95;;;9.70;;
4353;SDS011;11018;51.258;6.806;2023-06-22T02:39:26;17.95;;;10.18;;
4353;SDS011;11018;51.258;6.806;2023-06-22T02:41:52;18.50;;;10.07;;
4353;SDS011;11018;51.258;6.806;2023-06-22T02:44:18;13.75;;;10.30;;
4353;SDS011;11018;51.258;6.806;2023-06-22T02:46:44;13.80;;;10.05;;
4353;SDS011;11018;51.258;6.806;2023-06-22T02:49:10;14.95;;;10.48;;
4353;SDS011;11018;51.258;6.806;2023-06-22T02:51:38;16.48;;;10.60;;
4353;SDS011;11018;51.258;6.806;2023-06-22T02:54:05;14.18;;;10.90;;
4353;SDS011;11018;51.258;6.806;2023-06-22T02:56:31;15.65;;;10.63;;
4353;SDS011;11018;51.258;6.806;2023-06-22T02:58:56;15.10;;;11.10;;
4353;SDS011;11018;51.258;6.806;2023-06-22T03:01:29;17.65;;;12.27;;
4353;SDS011;11018;51.258;6.806;2023-06-22T03:04:04;22.58;;;11.93;;
4353;SDS011;11018;51.258;6.806;2023-06-22T03:06:31;15.95;;;11.20;;
4353;SDS011;11018;51.258;6.806;2023-06-22T03:08:59;17.83;;;11.13;;
4353;SDS011;11018;51.258;6.806;2023-06-22T03:11:25;16.50;;;10.70;;
4353;SDS011;11018;51.258;6.806;2023-06-22T03:13:51;14.90;;;10.13;;
4353;SDS011;11018;51.258;6.806;2023-06-22T03:16:18;16.35;;;10.77;;
4353;SDS011;11018;51.258;6.806;2023-06-22T03:18:44;16.83;;;9.88;;
4353;SDS011;11018;51.258;6.806;2023-06-22T03:21:09;16.80;;;10.70;;
4353;SDS011;11018;51.258;6.806;2023-06-22T03:23:35;16.60;;;11.10;;
4353;SDS011;11018;51.258;6.806;2023-06-22T03:26:01;15.87;;;11.33;;
4353;SDS011;11018;51.258;6.806;2023-06-22T03:28:27;17.25;;;11.98;;
4353;SDS011;11018;51.258;6.806;2023-06-22T03:30:52;16.23;;;11.07;;
4353;SDS011;11018;51.258;6.806;2023-06-22T03:33:18;17.67;;;11.87;;
4353;SDS011;11018;51.258;6.806;2023-06-22T03:35:43;17.90;;;12.13;;
4353;SDS011;11018;51.258;6.806;2023-06-22T03:38:09;19.85;;;11.73;;
4353;SDS011;11018;51.258;6.806;2023-06-22T03:40:34;16.77;;;12.03;;
4353;SDS011;11018;51.258;6.806;2023-06-22T03:43:00;17.10;;;12.30;;
4353;SDS011;11018;51.258;6.806;2023-06-22T03:45:25;16.50;;;12.40;;
4353;SDS011;11018;51.258;6.806;2023-06-22T03:47:51;17.17;;;12.60;;
4353;SDS011;11018;51.258;6.806;2023-06-22T03:50:16;16.37;;;11.80;;
4353;SDS011;11018;51.258;6.806;2023-06-22T03:52:45;17.15;;;12.48;;
4353;SDS011;11018;51.258;6.806;2023-06-22T03:55:11;18.20;;;11.20;;
4353;SDS011;11018;51.258;6.806;2023-06-22T03:57:36;17.90;;;11.47;;
4353;SDS011;11018;51.258;6.806;2023-06-22T04:00:02;17.05;;;12.20;;
4353;SDS011;11018;51.258;6.806;2023-06-22T04:02:30;16.40;;;12.07;;
4353;SDS011;11018;51.258;6.806;2023-06-22T04:04:56;19.63;;;12.05;;
4353;SDS011;11018;51.258;6.806;2023-06-22T04:07:21;18.33;;;12.30;;
4353;SDS011;11018;51.258;6.806;2023-06-22T04:09:47;17.40;;;11.27;;
4353;SDS011;11018;51.258;6.806;2023-06-22T04:12:13;21.77;;;12.95;;
4353;SDS011;11018;51.258;6.806;2023-06-22T04:14:38;16.53;;;11.80;;
4353;SDS011;11018;51.258;6.806;2023-06-22T04:17:04;16.95;;;10.93;;
4353;SDS011;11018;51.258;6.806;2023-06-22T04:19:29;16.58;;;12.13;;
4353;SDS011;11018;51.258;6.806;2023-06-22T04:21:55;15.55;;;11.93;;
4353;SDS011;11018;51.258;6.806;2023-06-22T04:24:21;17.97;;;12.30;;
4353;SDS011;11018;51.258;6.806;2023-06-22T04:26:47;17.52;;;11.77;;
4353;SDS011;11018;51.258;6.806;2023-06-22T04:29:12;15.60;;;12.37;;
4353;SDS011;11018;51.258;6.806;2023-06-22T04:31:38;20.25;;;12.57;;
4353;SDS011;11018;51.258;6.806;2023-06-22T04:34:05;20.30;;;12.15;;
4353;SDS011;11018;51.258;6.806;2023-06-22T04:36:34;17.13;;;12.25;;
4353;SDS011;11018;51.258;6.806;2023-06-22T04:39:05;15.88;;;12.10;;
4353;SDS011;11018;51.258;6.806;2023-06-22T04:41:32;18.67;;;12.55;;
4353;SDS011;11018;51.258;6.806;2023-06-22T04:44:13;18.67;;;13.60;;
4353;SDS011;11018;51.258;6.806;2023-06-22T04:46:48;16.37;;;11.80;;
4353;SDS011;11018;51.258;6.806;2023-06-22T04:49:18;17.23;;;12.00;;
4353;SDS011;11018;51.258;6.806;2023-06-22T04:51:45;17.35;;;12.80;;
4353;SDS011;11018;51.258;6.806;2023-06-22T04:54:10;17.33;;;11.70;;
4353;SDS011;11018;51.258;6.806;2023-06-22T04:56:36;20.57;;;13.03;;
4353;SDS011;11018;51.258;6.806;2023-06-22T04:59:02;19.40;;;12.35;;
4353;SDS011;11018;51.258;6.806;2023-06-22T05:01:30;18.85;;;12.55;;
4353;SDS011;11018;51.258;6.806;2023-06-22T05:03:56;16.27;;;11.73;;
4353;SDS011;11018;51.258;6.806;2023-06-22T05:06:23;19.25;;;12.90;;
4353;SDS011;11018;51.258;6.806;2023-06-22T05:08:55;18.73;;;12.27;;
4353;SDS011;11018;51.258;6.806;2023-06-22T05:11:24;15.38;;;11.90;;
4353;SDS011;11018;51.258;6.806;2023-06-22T05:13:51;14.00;;;11.00;;
4353;SDS011;11018;51.258;6.806;2023-06-22T05:16:17;17.60;;;12.05;;
4353;SDS011;11018;51.258;6.806;2023-06-22T05:18:42;18.07;;;11.80;;
4353;SDS011;11018;51.258;6.806;2023-06-22T05:21:08;17.53;;;11.90;;
4353;SDS011;11018;51.258;6.806;2023-06-22T05:23:34;17.17;;;11.30;;
4353;SDS011;11018;51.258;6.806;2023-06-22T05:25:59;14.80;;;11.48;;
4353;SDS011;11018;51.258;6.806;2023-06-22T05:28:25;20.10;;;12.20;;
4353;SDS011;11018;51.258;6.806;2023-06-22T05:30:51;15.55;;;11.95;;
4353;SDS011;11018;51.258;6.806;2023-06-22T05:33:16;17.90;;;11.43;;
4353;SDS011;11018;51.258;6.806;2023-06-22T05:35:42;18.33;;;11.47;;
4353;SDS011;11018;51.258;6.806;2023-06-22T05:38:08;20.55;;;11.93;;
4353;SDS011;11018;51.258;6.806;2023-06-22T05:40:33;16.08;;;11.70;;
4353;SDS011;11018;51.258;6.806;2023-06-22T05:42:59;20.23;;;12.70;;
4353;SDS011;11018;51.258;6.806;2023-06-22T05:45:26;20.80;;;12.25;;
4353;SDS011;11018;51.258;6.806;2023-06-22T05:47:52;18.47;;;11.90;;
4353;SDS011;11018;51.258;6.806;2023-06-22T05:50:17;18.85;;;12.70;;
4353;SDS011;11018;51.258;6.806;2023-06-22T05:52:43;18.83;;;12.60;;
4353;SDS011;11018;51.258;6.806;2023-06-22T05:55:09;18.38;;;12.50;;
4353;SDS011;11018;51.258;6.806;2023-06-22T05:57:37;23.40;;;13.43;;
4353;SDS011;11018;51.258;6.806;2023-06-22T06:00:03;18.53;;;13.20;;
4353;SDS011;11018;51.258;6.806;2023-06-22T06:02:33;21.27;;;13.70;;
4353;SDS011;11018;51.258;6.806;2023-06-22T06:04:58;18.55;;;12.85;;
4353;SDS011;11018;51.258;6.806;2023-06-22T06:07:24;18.47;;;12.83;;
4353;SDS011;11018;51.258;6.806;2023-06-22T06:09:51;19.95;;;13.55;;
4353;SDS011;11018;51.258;6.806;2023-06-22T06:12:16;23.45;;;14.00;;
4353;SDS011;11018;51.258;6.806;2023-06-22T06:14:42;20.20;;;13.90;;
4353;SDS011;11018;51.258;6.806;2023-06-22T06:17:07;20.35;;;13.30;;
4353;SDS011;11018;51.258;6.806;2023-06-22T06:19:33;20.53;;;13.47;;
4353;SDS011;11018;51.258;6.806;2023-06-22T06:21:59;20.50;;;14.02;;
4353;SDS011;11018;51.258;6.806;2023-06-22T06:24:25;19.13;;;13.75;;
4353;SDS011;11018;51.258;6.806;2023-06-22T06:26:51;19.52;;;13.68;;
4353;SDS011;11018;51.258;6.806;2023-06-22T06:29:16;17.90;;;12.70;;
4353;SDS011;11018;51.258;6.806;2023-06-22T06:31:42;17.83;;;12.30;;
4353;SDS011;11018;51.258;6.806;2023-06-22T06:34:07;24.00;;;12.40;;
4353;SDS011;11018;51.258;6.806;2023-06-22T06:36:33;21.03;;;12.70;;
4353;SDS011;11018;51.258;6.806;2023-06-22T06:38:58;16.08;;;12.27;;
4353;SDS011;11018;51.258;6.806;2023-06-22T06:41:24;17.63;;;11.93;;
4353;SDS011;11018;51.258;6.806;2023-06-22T06:43:50;17.02;;;12.00;;
4353;SDS011;11018;51.258;6.806;2023-06-22T06:46:15;15.37;;;12.20;;
4353;SDS011;11018;51.258;6.806;2023-06-22T06:48:41;16.33;;;11.80;;
4353;SDS011;11018;51.258;6.806;2023-06-22T06:51:06;17.50;;;12.33;;
4353;SDS011;11018;51.258;6.806;2023-06-22T06:53:34;18.85;;;12.90;;
4353;SDS011;11018;51.258;6.806;2023-06-22T06:56:01;19.55;;;12.20;;
4353;SDS011;11018;51.258;6.806;2023-06-22T06:58:27;17.45;;;12.02;;
4353;SDS011;11018;51.258;6.806;2023-06-22T07:00:53;27.83;;;13.55;;
4353;SDS011;11018;51.258;6.806;2023-06-22T07:03:19;17.42;;;11.30;;
4353;SDS011;11018;51.258;6.806;2023-06-22T07:05:44;18.90;;;12.73;;
4353;SDS011;11018;51.258;6.806;2023-06-22T07:08:10;14.95;;;11.98;;
4353;SDS011;11018;51.258;6.806;2023-06-22T07:10:36;16.53;;;12.10;;
4353;SDS011;11018;51.258;6.806;2023-06-22T07:13:01;19.42;;;12.60;;
4353;SDS011;11018;51.258;6.806;2023-06-22T07:15:27;19.77;;;13.13;;
4353;SDS011;11018;51.258;6.806;2023-06-22T07:17:52;17.30;;;12.33;;
4353;SDS011;11018;51.258;6.806;2023-06-22T07:20:18;18.10;;;12.10;;
4353;SDS011;11018;51.258;6.806;2023-06-22T07:22:44;16.38;;;13.13;;
4353;SDS011;11018;51.258;6.806;2023-06-22T07:25:10;20.60;;;14.00;;
4353;SDS011;11018;51.258;6.806;2023-06-22T07:27:39;20.92;;;15.90;;
4353;SDS011;11018;51.258;6.806;2023-06-22T07:30:08;20.13;;;14.05;;
4353;SDS011;11018;51.258;6.806;2023-06-22T07:32:35;21.73;;;15.00;;
4353;SDS011;11018;51.258;6.806;2023-06-22T07:35:01;20.40;;;16.05;;
4353;SDS011;11018;51.258;6.806;2023-06-22T07:37:27;26.95;;;15.85;;
4353;SDS011;11018;51.258;6.806;2023-06-22T07:39:54;17.50;;;14.63;;
4353;SDS011;11018;51.258;6.806;2023-06-22T07:42:23;20.80;;;16.42;;
4353;SDS011;11018;51.258;6.806;2023-06-22T07:44:50;20.75;;;16.00;;
4353;SDS011;11018;51.258;6.806;2023-06-22T07:47:18;23.10;;;16.30;;
4353;SDS011;11018;51.258;6.806;2023-06-22T07:49:44;35.83;;;27.08;;
4353;SDS011;11018;51.258;6.806;2023-06-22T07:52:10;26.42;;;19.88;;
4353;SDS011;11018;51.258;6.806;2023-06-22T07:54:36;24.60;;;18.50;;
4353;SDS011;11018;51.258;6.806;2023-06-22T07:57:02;24.33;;;16.88;;
4353;SDS011;11018;51.258;6.806;2023-06-22T07:59:27;22.23;;;17.20;;
4353;SDS011;11018;51.258;6.806;2023-06-22T08:01:54;21.83;;;16.70;;
4353;SDS011;11018;51.258;6.806;2023-06-22T08:04:20;20.65;;;15.90;;
4353;SDS011;11018;51.258;6.806;2023-06-22T08:06:46;25.08;;;17.15;;
4353;SDS011;11018;51.258;6.806;2023-06-22T08:09:12;22.80;;;15.40;;
4353;SDS011;11018;51.258;6.806;2023-06-22T08:11:37;22.05;;;15.40;;
4353;SDS011;11018;51.258;6.806;2023-06-22T08:14:03;22.20;;;15.00;;
4353;SDS011;11018;51.258;6.806;2023-06-22T08:16:28;23.20;;;15.80;;
4353;SDS011;11018;51.258;6.806;2023-06-22T08:18:54;22.20;;;16.10;;
4353;SDS011;11018;51.258;6.806;2023-06-22T08:21:20;20.97;;;16.57;;
4353;SDS011;11018;51.258;6.806;2023-06-22T08:23:45;18.70;;;15.57;;
4353;SDS011;11018;51.258;6.806;2023-06-22T08:26:11;21.87;;;15.93;;
4353;SDS011;11018;51.258;6.806;2023-06-22T08:28:36;23.58;;;16.50;;
4353;SDS011;11018;51.258;6.806;2023-06-22T08:31:02;21.63;;;14.80;;
4353;SDS011;11018;51.258;6.806;2023-06-22T08:33:28;17.80;;;14.18;;
4353;SDS011;11018;51.258;6.806;2023-06-22T08:35:55;18.27;;;13.43;;
4353;SDS011;11018;51.258;6.806;2023-06-22T08:38:21;16.48;;;11.23;;
4353;SDS011;11018;51.258;6.806;2023-06-22T08:40:46;16.30;;;12.10;;
4353;SDS011;11018;51.258;6.806;2023-06-22T08:43:12;17.67;;;11.88;;
4353;SDS011;11018;51.258;6.806;2023-06-22T08:45:37;16.57;;;12.73;;
4353;SDS011;11018;51.258;6.806;2023-06-22T08:48:03;20.23;;;14.80;;
4353;SDS011;11018;51.258;6.806;2023-06-22T08:50:29;13.50;;;9.90;;
4353;SDS011;11018;51.258;6.806;2023-06-22T08:52:54;15.02;;;10.40;;
4353;SDS011;11018;51.258;6.806;2023-06-22T08:55:20;12.80;;;9.80;;
4353;SDS011;11018;51.258;6.806;2023-06-22T08:57:45;14.33;;;9.73;;
4353;SDS011;11018;51.258;6.806;2023-06-22T09:00:11;11.98;;;8.50;;
4353;SDS011;11018;51.258;6.806;2023-06-22T09:02:41;12.02;;;9.50;;
4353;SDS011;11018;51.258;6.806;2023-06-22T09:05:09;13.30;;;10.53;;
4353;SDS011;11018;51.258;6.806;2023-06-22T09:07:35;15.00;;;10.93;;
4353;SDS011;11018;51.258;6.806;2023-06-22T09:10:00;11.23;;;9.53;;
4353;SDS011;11018;51.258;6.806;2023-06-22T09:12:26;10.73;;;8.38;;
4353;SDS011;11018;51.258;6.806;2023-06-22T09:14:52;9.10;;;8.10;;
4353;SDS011;11018;51.258;6.806;2023-06-22T09:17:18;10.07;;;8.60;;
4353;SDS011;11018;51.258;6.806;2023-06-22T09:19:44;16.40;;;9.65;;
4353;SDS011;11018;51.258;6.806;2023-06-22T09:22:09;15.37;;;9.33;;
4353;SDS011;11018;51.258;6.806;2023-06-22T09:24:35;11.20;;;9.13;;
4353;SDS011;11018;51.258;6.806;2023-06-22T09:27:00;15.17;;;9.23;;
4353;SDS011;11018;51.258;6.806;2023-06-22T09:29:26;12.50;;;8.80;;
4353;SDS011;11018;51.258;6.806;2023-06-22T09:31:52;11.53;;;9.20;;
4353;SDS011;11018;51.258;6.806;2023-06-22T09:34:20;13.43;;;8.80;;
4353;SDS011;11018;51.258;6.806;2023-06-22T09:36:46;13.07;;;9.70;;
4353;SDS011;11018;51.258;6.806;2023-06-22T09:39:12;13.05;;;9.10;;
4353;SDS011;11018;51.258;6.806;2023-06-22T09:41:37;12.23;;;8.80;;
4353;SDS011;11018;51.258;6.806;2023-06-22T09:44:03;12.02;;;8.50;;
4353;SDS011;11018;51.258;6.806;2023-06-22T09:46:29;9.97;;;8.53;;
4353;SDS011;11018;51.258;6.806;2023-06-22T09:48:54;11.68;;;8.48;;
4353;SDS011;11018;51.258;6.806;2023-06-22T09:51:20;10.93;;;8.60;;
4353;SDS011;11018;51.258;6.806;2023-06-22T09:53:46;10.77;;;8.93;;
4353;SDS011;11018;51.258;6.806;2023-06-22T09:56:12;13.48;;;8.68;;
4353;SDS011;11018;51.258;6.806;2023-06-22T09:58:43;14.05;;;9.65;;
4353;SDS011;11018;51.258;6.806;2023-06-22T10:01:09;9.40;;;8.23;;
4353;SDS011;11018;51.258;6.806;2023-06-22T10:03:36;13.13;;;9.85;;
4353;SDS011;11018;51.258;6.806;2023-06-22T10:06:02;12.15;;;10.57;;
4353;SDS011;11018;51.258;6.806;2023-06-22T10:08:28;11.60;;;9.90;;
4353;SDS011;11018;51.258;6.806;2023-06-22T10:10:53;14.45;;;9.98;;
4353;SDS011;11018;51.258;6.806;2023-06-22T10:13:19;12.53;;;9.80;;
4353;SDS011;11018;51.258;6.806;2023-06-22T10:15:45;11.30;;;10.10;;
4353;SDS011;11018;51.258;6.806;2023-06-22T10:18:14;12.80;;;9.48;;
4353;SDS011;11018;51.258;6.806;2023-06-22T10:20:41;13.55;;;10.90;;
4353;SDS011;11018;51.258;6.806;2023-06-22T10:23:06;12.80;;;10.07;;
4353;SDS011;11018;51.258;6.806;2023-06-22T10:25:32;14.20;;;10.40;;
4353;SDS011;11018;51.258;6.806;2023-06-22T10:27:57;13.98;;;10.85;;
4353;SDS011;11018;51.258;6.806;2023-06-22T10:30:23;14.43;;;12.32;;
4353;SDS011;11018;51.258;6.806;2023-06-22T10:32:49;15.60;;;11.50;;
4353;SDS011;11018;51.258;6.806;2023-06-22T10:35:14;15.85;;;12.40;;
4353;SDS011;11018;51.258;6.806;2023-06-22T10:37:42;16.48;;;12.50;;
4353;SDS011;11018;51.258;6.806;2023-06-22T10:40:08;15.13;;;12.18;;
4353;SDS011;11018;51.258;6.806;2023-06-22T10:42:34;17.65;;;12.90;;
4353;SDS011;11018;51.258;6.806;2023-06-22T10:45:00;20.20;;;13.73;;
4353;SDS011;11018;51.258;6.806;2023-06-22T10:47:25;18.57;;;13.40;;
4353;SDS011;11018;51.258;6.806;2023-06-22T10:49:51;19.60;;;14.17;;
4353;SDS011;11018;51.258;6.806;2023-06-22T10:52:16;19.80;;;14.80;;
4353;SDS011;11018;51.258;6.806;2023-06-22T10:54:42;21.73;;;15.60;;
4353;SDS011;11018;51.258;6.806;2023-06-22T10:57:07;20.17;;;15.00;;
4353;SDS011;11018;51.258;6.806;2023-06-22T10:59:33;24.13;;;17.40;;
4353;SDS011;11018;51.258;6.806;2023-06-22T11:01:58;22.43;;;17.03;;
4353;SDS011;11018;51.258;6.806;2023-06-22T11:04:24;23.92;;;17.35;;
4353;SDS011;11018;51.258;6.806;2023-06-22T11:06:50;32.33;;;20.40;;
4353;SDS011;11018;51.258;6.806;2023-06-22T11:09:16;27.00;;;19.15;;
4353;SDS011;11018;51.258;6.806;2023-06-22T11:11:45;26.87;;;20.80;;
4353;SDS011;11018;51.258;6.806;2023-06-22T11:14:15;34.58;;;24.20;;
4353;SDS011;11018;51.258;6.806;2023-06-22T11:16:41;31.48;;;23.70;;
4353;SDS011;11018;51.258;6.806;2023-06-22T11:19:06;32.30;;;24.35;;
4353;SDS011;11018;51.258;6.806;2023-06-22T11:21:32;31.30;;;24.60;;
4353;SDS011;11018;51.258;6.806;2023-06-22T11:23:58;38.72;;;28.65;;
4353;SDS011;11018;51.258;6.806;2023-06-22T11:26:24;36.83;;;28.30;;
4353;SDS011;11018;51.258;6.806;2023-06-22T11:28:52;39.95;;;29.85;;
4353;SDS011;11018;51.258;6.806;2023-06-22T11:31:18;37.63;;;30.50;;
4353;SDS011;11018;51.258;6.806;2023-06-22T11:33:43;39.57;;;29.90;;
4353;SDS011;11018;51.258;6.806;2023-06-22T11:36:10;41.67;;;30.60;;
4353;SDS011;11018;51.258;6.806;2023-06-22T11:38:36;42.07;;;32.37;;
4353;SDS011;11018;51.258;6.806;2023-06-22T11:41:04;45.17;;;32.33;;
4353;SDS011;11018;51.258;6.806;2023-06-22T11:43:33;42.47;;;33.30;;
4353;SDS011;11018;51.258;6.806;2023-06-22T11:45:59;51.50;;;35.60;;
4353;SDS011;11018;51.258;6.806;2023-06-22T11:48:25;44.90;;;34.33;;
4353;SDS011;11018;51.258;6.806;2023-06-22T11:50:51;45.60;;;34.70;;
4353;SDS011;11018;51.258;6.806;2023-06-22T11:53:17;49.60;;;36.97;;
4353;SDS011;11018;51.258;6.806;2023-06-22T11:55:43;50.13;;;37.00;;
4353;SDS011;11018;51.258;6.806;2023-06-22T11:58:11;50.42;;;37.25;;
4353;SDS011;11018;51.258;6.806;2023-06-22T12:00:37;48.13;;;35.77;;
4353;SDS011;11018;51.258;6.806;2023-06-22T12:03:02;44.97;;;36.20;;
4353;SDS011;11018;51.258;6.806;2023-06-22T12:05:28;48.53;;;36.67;;
4353;SDS011;11018;51.258;6.806;2023-06-22T12:07:54;48.75;;;35.78;;
4353;SDS011;11018;51.258;6.806;2023-06-22T12:10:20;43.88;;;34.25;;
4353;SDS011;11018;51.258;6.806;2023-06-22T12:12:50;44.17;;;31.52;;
4353;SDS011;11018;51.258;6.806;2023-06-22T12:15:16;38.97;;;30.07;;
4353;SDS011;11018;51.258;6.806;2023-06-22T12:17:41;42.63;;;32.03;;
4353;SDS011;11018;51.258;6.806;2023-06-22T12:20:07;41.15;;;31.05;;
4353;SDS011;11018;51.258;6.806;2023-06-22T12:22:33;40.75;;;31.27;;
4353;SDS011;11018;51.258;6.806;2023-06-22T12:24:59;41.17;;;33.28;;
4353;SDS011;11018;51.258;6.806;2023-06-22T12:27:25;44.58;;;32.72;;
4353;SDS011;11018;51.258;6.806;2023-06-22T12:29:51;45.77;;;35.13;;
4353;SDS011;11018;51.258;6.806;2023-06-22T12:32:17;42.43;;;35.20;;
4353;SDS011;11018;51.258;6.806;2023-06-22T12:34:43;45.97;;;34.95;;
4353;SDS011;11018;51.258;6.806;2023-06-22T12:37:09;45.75;;;34.42;;
4353;SDS011;11018;51.258;6.806;2023-06-22T12:39:35;49.42;;;37.72;;
4353;SDS011;11018;51.258;6.806;2023-06-22T12:42:01;50.83;;;38.42;;
4353;SDS011;11018;51.258;6.806;2023-06-22T12:44:27;50.63;;;37.57;;
4353;SDS011;11018;51.258;6.806;2023-06-22T12:46:52;53.15;;;38.88;;
4353;SDS011;11018;51.258;6.806;2023-06-22T12:49:18;54.60;;;39.80;;
4353;SDS011;11018;51.258;6.806;2023-06-22T12:51:44;51.33;;;38.37;;
4353;SDS011;11018;51.258;6.806;2023-06-22T12:54:10;51.92;;;37.70;;
4353;SDS011;11018;51.258;6.806;2023-06-22T12:56:36;49.53;;;38.45;;
4353;SDS011;11018;51.258;6.806;2023-06-22T12:59:02;46.80;;;36.40;;
4353;SDS011;11018;51.258;6.806;2023-06-22T13:01:29;50.83;;;36.90;;
4353;SDS011;11018;51.258;6.806;2023-06-22T13:03:58;43.78;;;35.47;;
4353;SDS011;11018;51.258;6.806;2023-06-22T13:06:24;42.78;;;33.25;;
4353;SDS011;11018;51.258;6.806;2023-06-22T13:08:49;43.53;;;33.20;;
4353;SDS011;11018;51.258;6.806;2023-06-22T13:11:15;44.97;;;33.03;;
4353;SDS011;11018;51.258;6.806;2023-06-22T13:13:41;44.95;;;34.65;;
4353;SDS011;11018;51.258;6.806;2023-06-22T13:16:06;45.40;;;35.23;;
4353;SDS011;11018;51.258;6.806;2023-06-22T13:18:32;44.80;;;34.80;;
4353;SDS011;11018;51.258;6.806;2023-06-22T13:20:59;45.38;;;36.15;;
4353;SDS011;11018;51.258;6.806;2023-06-22T13:23:25;50.27;;;36.83;;
4353;SDS011;11018;51.258;6.806;2023-06-22T13:25:50;46.83;;;35.28;;
4353;SDS011;11018;51.258;6.806;2023-06-22T13:28:16;47.22;;;34.60;;
4353;SDS011;11018;51.258;6.806;2023-06-22T13:30:42;46.43;;;35.57;;
4353;SDS011;11018;51.258;6.806;2023-06-22T13:33:08;48.00;;;35.13;;
4353;SDS011;11018;51.258;6.806;2023-06-22T13:35:34;42.35;;;33.78;;
4353;SDS011;11018;51.258;6.806;2023-06-22T13:38:03;39.15;;;32.67;;
4353;SDS011;11018;51.258;6.806;2023-06-22T13:40:29;40.95;;;31.92;;
4353;SDS011;11018;51.258;6.806;2023-06-22T13:42:55;38.77;;;31.27;;
4353;SDS011;11018;51.258;6.806;2023-06-22T13:45:21;40.00;;;31.48;;
4353;SDS011;11018;51.258;6.806;2023-06-22T13:47:46;40.27;;;32.43;;
4353;SDS011;11018;51.258;6.806;2023-06-22T13:50:12;40.80;;;33.10;;
4353;SDS011;11018;51.258;6.806;2023-06-22T13:52:38;43.90;;;32.50;;
4353;SDS011;11018;51.258;6.806;2023-06-22T13:55:04;40.83;;;32.33;;
4353;SDS011;11018;51.258;6.806;2023-06-22T13:57:30;41.92;;;33.00;;
4353;SDS011;11018;51.258;6.806;2023-06-22T13:59:56;40.35;;;33.85;;
4353;SDS011;11018;51.258;6.806;2023-06-22T14:02:21;45.40;;;34.07;;
4353;SDS011;11018;51.258;6.806;2023-06-22T14:04:47;43.55;;;33.60;;
4353;SDS011;11018;51.258;6.806;2023-06-22T14:07:12;42.23;;;32.73;;
4353;SDS011;11018;51.258;6.806;2023-06-22T14:09:38;39.92;;;31.67;;
4353;SDS011;11018;51.258;6.806;2023-06-22T14:12:04;44.73;;;33.23;;
4353;SDS011;11018;51.258;6.806;2023-06-22T14:14:31;41.45;;;33.53;;
4353;SDS011;11018;51.258;6.806;2023-06-22T14:16:57;47.10;;;34.80;;
4353;SDS011;11018;51.258;6.806;2023-06-22T14:19:23;45.85;;;34.00;;
4353;SDS011;11018;51.258;6.806;2023-06-22T14:21:49;40.90;;;31.30;;
4353;SDS011;11018;51.258;6.806;2023-06-22T14:24:15;44.87;;;32.53;;
4353;SDS011;11018;51.258;6.806;2023-06-22T14:26:40;42.10;;;31.25;;
4353;SDS011;11018;51.258;6.806;2023-06-22T14:29:06;39.80;;;30.83;;
4353;SDS011;11018;51.258;6.806;2023-06-22T14:31:31;44.15;;;31.52;;
4353;SDS011;11018;51.258;6.806;2023-06-22T14:33:57;46.92;;;34.45;;
4353;SDS011;11018;51.258;6.806;2023-06-22T14:36:23;50.10;;;36.07;;
4353;SDS011;11018;51.258;6.806;2023-06-22T14:38:48;43.47;;;33.50;;
4353;SDS011;11018;51.258;6.806;2023-06-22T14:41:14;47.73;;;32.70;;
4353;SDS011;11018;51.258;6.806;2023-06-22T14:43:45;43.50;;;33.80;;